createdAt,value
2022-09-05T00:01:27.333Z,30.10
2022-09-05T00:03:58.879Z,30.20
2022-09-05T00:06:51.319Z,30.20
2022-09-05T00:09:22.290Z,30.30
2022-09-05T00:11:57.570Z,30.30
2022-09-05T00:15:14.893Z,30.40
2022-09-05T00:17:58.887Z,30.50
2022-09-05T00:24:23.214Z,30.60
2022-09-05T00:24:26.448Z,30.70
2022-09-05T00:26:12.811Z,30.70
2022-09-05T00:28:44.095Z,30.70
2022-09-05T00:31:54.978Z,30.80
2022-09-05T00:34:19.568Z,30.80
2022-09-05T00:36:48.006Z,30.90
2022-09-05T00:39:19.474Z,31.00
2022-09-05T00:41:49.180Z,31.00
2022-09-05T00:44:18.420Z,31.00
2022-09-05T00:46:52.094Z,31.10
2022-09-05T00:49:22.833Z,31.20
2022-09-05T00:51:54.139Z,31.20
2022-09-05T00:54:42.334Z,31.20
2022-09-05T00:57:23.861Z,31.30
2022-09-05T01:00:08.388Z,31.40
2022-09-05T01:02:52.616Z,31.40
2022-09-05T01:05:27.168Z,31.50
2022-09-05T01:08:04.744Z,31.60
2022-09-05T01:10:36.736Z,31.60
2022-09-05T01:13:13.815Z,31.60
2022-09-05T01:15:47.285Z,31.70
2022-09-05T01:18:25.394Z,31.70
2022-09-05T01:21:34.748Z,31.80
2022-09-05T01:24:09.763Z,31.80
2022-09-05T01:27:04.443Z,31.80
2022-09-05T01:29:37.633Z,31.90
2022-09-05T01:32:21.508Z,32.00
2022-09-05T01:34:59.096Z,32.10
2022-09-05T01:37:33.447Z,32.10
2022-09-05T01:40:15.661Z,32.10
2022-09-05T01:42:50.999Z,32.20
2022-09-05T01:45:21.591Z,32.30
2022-09-05T01:47:55.870Z,32.30
2022-09-05T01:50:37.239Z,32.30
2022-09-05T01:53:15.348Z,32.30
2022-09-05T01:56:05.209Z,32.40
2022-09-05T01:58:47.462Z,32.40
2022-09-05T02:01:27.992Z,32.40
2022-09-05T02:04:12.391Z,32.40
2022-09-05T02:06:44.134Z,32.40
2022-09-05T02:09:19.975Z,32.50
2022-09-05T02:11:50.590Z,32.50
2022-09-05T02:14:33.838Z,32.50
2022-09-05T02:17:49.353Z,32.50
2022-09-05T02:20:09.848Z,32.50
2022-09-05T02:22:43.288Z,32.50
2022-09-05T02:25:30.469Z,32.50
2022-09-05T02:28:06.395Z,32.60
2022-09-05T02:30:35.625Z,32.60
2022-09-05T02:33:12.528Z,32.50
2022-09-05T02:35:45.779Z,32.60
2022-09-05T02:39:27.037Z,32.60
2022-09-05T02:45:07.732Z,32.50
2022-09-05T02:45:19.865Z,32.50
2022-09-05T02:46:47.069Z,32.50
2022-09-05T02:51:45.014Z,32.50
2022-09-05T02:57:30.218Z,32.50
2022-09-05T02:57:37.798Z,32.50
2022-09-05T02:58:07.089Z,32.40
2022-09-05T03:00:39.264Z,32.50
2022-09-05T03:03:15.136Z,32.50
2022-09-05T03:05:47.080Z,32.50
2022-09-05T03:08:25.277Z,32.40
2022-09-05T03:11:20.278Z,32.50
2022-09-05T03:14:22.827Z,32.40
2022-09-05T03:17:15.081Z,32.50
2022-09-05T03:20:14.152Z,32.40
2022-09-05T03:23:02.013Z,32.40
2022-09-05T03:25:47.232Z,32.30
2022-09-05T03:28:52.244Z,32.30
2022-09-05T03:31:26.413Z,32.30
2022-09-05T03:34:17.793Z,32.20
2022-09-05T03:37:15.472Z,32.30
2022-09-05T03:40:34.615Z,32.30
2022-09-05T03:43:29.729Z,32.20
2022-09-05T03:46:02.502Z,32.20
2022-09-05T03:48:48.020Z,32.10
2022-09-05T03:57:11.253Z,32.20
2022-09-05T03:57:27.735Z,32.10
2022-09-05T03:57:42.547Z,32.10
2022-09-05T04:00:20.712Z,32.10
2022-09-05T04:08:07.919Z,32.10
2022-09-05T04:08:25.372Z,32.00
2022-09-05T04:08:42.635Z,32.00
2022-09-05T04:11:12.470Z,32.00
2022-09-05T04:13:45.330Z,32.00
2022-09-05T04:16:16.655Z,32.00
2022-09-05T04:18:46.031Z,31.90
2022-09-05T04:21:15.948Z,31.90
2022-09-05T04:23:57.111Z,31.90
2022-09-05T04:26:43.092Z,31.90
2022-09-05T04:29:15.987Z,31.90
2022-09-05T04:31:51.972Z,31.80
2022-09-05T04:34:42.341Z,31.80
2022-09-05T04:37:10.797Z,31.80
2022-09-05T04:39:38.507Z,31.80
2022-09-05T04:42:19.754Z,31.80
2022-09-05T04:44:48.946Z,31.80
2022-09-05T04:47:20.318Z,31.70
2022-09-05T04:49:50.827Z,31.80
2022-09-05T04:52:58.729Z,31.70
2022-09-05T04:55:27.193Z,31.70
2022-09-05T04:57:56.167Z,31.60
2022-09-05T05:06:04.678Z,31.60
2022-09-05T05:06:14.278Z,31.60
2022-09-05T05:08:58.365Z,31.60
2022-09-05T05:16:29.910Z,31.60
2022-09-05T05:18:00.928Z,31.60
2022-09-05T05:18:14.993Z,31.50
2022-09-05T05:20:39.854Z,31.60
2022-09-05T05:23:11.408Z,31.50
2022-09-05T05:25:44.412Z,31.40
2022-09-05T05:28:24.408Z,31.50
2022-09-05T05:30:58.303Z,31.40
2022-09-05T05:33:30.723Z,31.40
2022-09-05T05:36:00.362Z,31.40
2022-09-05T05:38:32.688Z,31.40
2022-09-05T05:41:03.477Z,31.40
2022-09-05T05:43:35.332Z,31.40
2022-09-05T05:46:03.104Z,31.40
2022-09-05T05:48:36.769Z,31.30
2022-09-05T05:51:20.041Z,31.30
2022-09-05T05:54:03.961Z,31.40
2022-09-05T05:56:40.819Z,31.20
2022-09-05T05:59:24.632Z,31.30
2022-09-05T06:02:37.640Z,31.30
2022-09-05T06:05:28.536Z,31.20
2022-09-05T06:10:57.385Z,31.30
2022-09-05T06:15:00.010Z,31.30
2022-09-05T06:15:02.500Z,31.20
2022-09-05T06:17:45.231Z,31.20
2022-09-05T06:22:05.042Z,31.20
2022-09-05T06:23:59.298Z,31.20
2022-09-05T06:26:41.306Z,31.20
2022-09-05T06:29:12.587Z,31.20
2022-09-05T06:31:49.378Z,31.10
2022-09-05T06:34:35.226Z,31.20
2022-09-05T06:37:07.584Z,31.20
2022-09-05T06:39:49.363Z,31.10
2022-09-05T06:42:42.160Z,31.20
2022-09-05T06:45:30.056Z,31.10
2022-09-05T06:48:00.543Z,31.10
2022-09-05T06:50:39.436Z,31.00
2022-09-05T06:53:36.772Z,31.00
2022-09-05T06:56:26.013Z,31.00
2022-09-05T06:59:27.525Z,31.00
2022-09-05T07:02:01.261Z,31.00
2022-09-05T07:05:23.228Z,31.00
2022-09-05T07:07:24.207Z,31.00
2022-09-05T07:09:58.930Z,31.00
2022-09-05T07:12:30.298Z,31.00
2022-09-05T07:15:08.522Z,31.00
2022-09-05T07:18:09.146Z,30.90
2022-09-05T07:21:06.742Z,30.90
2022-09-05T07:24:07.090Z,30.90
2022-09-05T07:26:35.074Z,31.00
2022-09-05T07:29:19.093Z,30.90
2022-09-05T07:31:52.964Z,30.90
2022-09-05T07:34:22.579Z,30.90
2022-09-05T07:37:03.060Z,30.90
2022-09-05T07:39:40.943Z,30.90
2022-09-05T07:42:11.598Z,30.90
2022-09-05T07:44:41.991Z,30.90
2022-09-05T07:47:10.920Z,30.90
2022-09-05T07:49:50.538Z,30.80
2022-09-05T07:56:51.884Z,30.80
2022-09-05T07:57:02.077Z,30.80
2022-09-05T07:58:14.688Z,30.80
2022-09-05T08:00:44.058Z,30.80
2022-09-05T08:03:12.932Z,30.80
2022-09-05T08:05:42.258Z,30.80
2022-09-05T08:08:10.887Z,30.80
2022-09-05T08:11:24.316Z,30.80
2022-09-05T08:13:46.526Z,30.80
2022-09-05T08:16:19.485Z,30.80
2022-09-05T08:18:49.941Z,30.70
2022-09-05T08:21:27.624Z,30.80
2022-09-05T08:23:58.083Z,30.80
2022-09-05T08:26:32.544Z,30.70
2022-09-05T08:29:03.545Z,30.80
2022-09-05T08:31:38.606Z,30.80
2022-09-05T08:34:12.012Z,30.80
2022-09-05T08:36:41.222Z,30.80
2022-09-05T08:39:10.284Z,30.70
2022-09-05T08:41:52.314Z,30.80
2022-09-05T08:46:37.682Z,30.80
2022-09-05T08:47:22.329Z,30.80
2022-09-05T08:50:04.788Z,30.80
2022-09-05T08:52:39.140Z,30.80
2022-09-05T08:55:12.144Z,30.80
2022-09-05T08:58:05.858Z,30.80
2022-09-05T09:00:35.940Z,30.80
2022-09-05T09:03:11.700Z,30.80
2022-09-05T09:06:17.048Z,30.80
2022-09-05T09:09:09.634Z,30.80
2022-09-05T09:11:38.691Z,30.80
2022-09-05T09:14:35.623Z,30.80
2022-09-05T09:17:08.194Z,30.80
2022-09-05T09:19:47.586Z,30.80
2022-09-05T09:22:19.655Z,30.90
2022-09-05T09:25:08.277Z,30.80
2022-09-05T09:28:17.688Z,30.80
2022-09-05T09:30:32.295Z,30.90
2022-09-05T09:33:03.557Z,30.80
2022-09-05T09:35:38.736Z,30.80
2022-09-05T09:38:27.319Z,30.90
2022-09-05T09:41:28.839Z,30.90
2022-09-05T09:44:35.350Z,31.00
2022-09-05T09:47:03.969Z,30.90
2022-09-05T09:49:42.619Z,31.00
2022-09-05T09:52:50.116Z,31.00
2022-09-05T09:56:12.159Z,31.10
2022-09-05T09:58:57.773Z,31.10
2022-09-05T10:01:37.355Z,31.20
2022-09-05T10:10:36.401Z,31.10
2022-09-05T10:11:09.015Z,31.20
2022-09-05T10:11:18.844Z,31.20
2022-09-05T10:13:29.696Z,31.20
2022-09-05T10:16:30.603Z,31.30
2022-09-05T10:19:11.947Z,31.30
2022-09-05T10:22:34.343Z,31.20
2022-09-05T10:24:58.968Z,31.20
2022-09-05T10:28:14.256Z,31.20
2022-09-05T10:32:51.994Z,31.20
2022-09-05T10:35:10.024Z,31.10
2022-09-05T10:36:28.621Z,31.10
2022-09-05T10:39:02.903Z,31.00
2022-09-05T10:41:43.469Z,31.00
2022-09-05T10:44:13.499Z,31.00
2022-09-05T10:46:51.132Z,30.90
2022-09-05T10:49:22.303Z,30.90
2022-09-05T10:51:58.308Z,30.90
2022-09-05T10:54:49.404Z,30.80
2022-09-05T10:57:27.913Z,30.80
2022-09-05T11:02:21.117Z,30.70
2022-09-05T11:02:57.670Z,30.80
2022-09-05T11:05:27.220Z,30.70
2022-09-05T11:08:01.794Z,30.70
2022-09-05T11:10:32.815Z,30.70
2022-09-05T11:13:16.973Z,30.60
2022-09-05T11:16:03.634Z,30.60
2022-09-05T11:18:56.218Z,30.60
2022-09-05T11:21:28.333Z,30.60
2022-09-05T11:23:57.554Z,30.50
2022-09-05T11:26:32.225Z,30.50
2022-09-05T11:29:03.161Z,30.50
2022-09-05T11:34:07.366Z,30.50
2022-09-05T11:39:52.398Z,30.50
2022-09-05T11:40:02.803Z,30.40
2022-09-05T11:40:58.048Z,30.50
2022-09-05T11:44:26.199Z,30.40
2022-09-05T11:47:28.724Z,30.40
2022-09-05T11:50:25.117Z,30.40
2022-09-05T11:53:14.193Z,30.40
2022-09-05T11:56:05.898Z,30.40
2022-09-05T11:58:50.452Z,30.50
2022-09-05T12:01:41.168Z,30.40
2022-09-05T12:04:18.712Z,30.40
2022-09-05T12:07:15.478Z,30.40
2022-09-05T12:10:47.603Z,30.40
2022-09-05T12:13:42.448Z,30.40
2022-09-05T12:16:26.503Z,30.30
2022-09-05T12:19:06.318Z,30.30
2022-09-05T12:22:08.913Z,30.40
2022-09-05T12:25:24.706Z,30.40
2022-09-05T12:27:46.336Z,30.30
2022-09-05T12:30:15.665Z,30.30
2022-09-05T12:35:53.087Z,30.30
2022-09-05T12:36:12.902Z,30.30
2022-09-05T12:40:53.715Z,30.30
2022-09-05T12:41:44.277Z,30.30
2022-09-05T12:44:44.288Z,30.30
2022-09-05T12:47:18.666Z,30.40
2022-09-05T12:49:55.315Z,30.30
2022-09-05T12:52:37.781Z,30.30
2022-09-05T12:55:09.302Z,30.30
2022-09-05T13:00:56.201Z,30.30
2022-09-05T13:03:11.562Z,30.30
2022-09-05T13:03:28.029Z,30.30
2022-09-05T13:06:10.417Z,30.40
2022-09-05T13:08:59.984Z,30.30
2022-09-05T13:14:52.375Z,30.30
2022-09-05T13:14:54.758Z,30.30
2022-09-05T13:17:08.960Z,30.30
2022-09-05T13:19:40.366Z,30.30
2022-09-05T13:22:11.157Z,30.30
2022-09-05T13:24:41.579Z,30.40
2022-09-05T13:27:13.564Z,30.40
2022-09-05T13:30:56.392Z,30.40
2022-09-05T13:38:02.192Z,30.40
2022-09-05T13:38:02.865Z,30.40
2022-09-05T13:38:45.996Z,30.40
2022-09-05T13:41:27.313Z,30.40
2022-09-05T13:44:00.337Z,30.50
2022-09-05T13:46:57.873Z,30.50
2022-09-05T13:49:31.309Z,30.50
2022-09-05T13:52:07.541Z,30.50
2022-09-05T13:54:40.410Z,30.40
2022-09-05T13:57:32.420Z,30.50
2022-09-05T14:00:51.713Z,30.50
2022-09-05T14:03:58.051Z,30.50
2022-09-05T14:06:49.226Z,30.50
2022-09-05T14:09:40.223Z,30.50
2022-09-05T14:12:13.488Z,30.40
2022-09-05T14:17:54.694Z,30.40
2022-09-05T14:20:43.013Z,30.30
2022-09-05T14:23:13.525Z,30.30
2022-09-05T14:25:44.426Z,30.30
2022-09-05T14:28:14.441Z,30.30
2022-09-05T14:36:09.372Z,30.30
2022-09-05T14:37:45.202Z,30.30
2022-09-05T14:37:51.714Z,30.30
2022-09-05T14:39:50.600Z,30.30
2022-09-05T14:42:45.619Z,30.30
2022-09-05T14:45:33.961Z,30.30
2022-09-05T14:48:40.448Z,30.30
2022-09-05T14:51:25.760Z,30.30
2022-09-05T14:54:01.542Z,30.20
2022-09-05T14:59:37.750Z,30.20
2022-09-05T15:02:49.215Z,30.30
2022-09-05T15:02:51.877Z,30.20
2022-09-05T15:05:18.902Z,30.20
2022-09-05T15:07:47.458Z,30.20
2022-09-05T15:12:21.028Z,30.20
2022-09-05T15:13:25.972Z,30.20
2022-09-05T15:16:02.640Z,30.20
2022-09-05T15:18:32.257Z,30.10
2022-09-05T15:21:33.728Z,30.00
2022-09-05T15:24:17.165Z,30.00
2022-09-05T15:26:52.721Z,29.90
2022-09-05T15:29:23.695Z,29.90
2022-09-05T15:32:09.401Z,29.80
2022-09-05T15:34:38.667Z,29.80
2022-09-05T15:37:24.366Z,29.80
2022-09-05T15:40:22.558Z,29.80
2022-09-05T15:42:58.504Z,29.90
2022-09-05T15:45:30.048Z,29.90
2022-09-05T15:48:08.781Z,30.00
2022-09-05T15:50:42.164Z,30.00
2022-09-05T15:53:25.963Z,29.90
2022-09-05T15:56:00.021Z,30.00
2022-09-05T15:58:29.957Z,29.90
2022-09-05T16:01:48.573Z,29.90
2022-09-05T16:08:38.212Z,29.90
2022-09-05T16:10:38.652Z,29.90
2022-09-05T16:10:41.558Z,30.00
2022-09-05T16:16:50.127Z,29.90
2022-09-05T16:23:21.114Z,29.90
2022-09-05T16:23:23.855Z,29.90
2022-09-05T16:23:52.056Z,30.00
2022-09-05T16:26:25.706Z,29.90
2022-09-05T16:28:58.027Z,29.90
2022-09-05T16:31:30.313Z,29.80
2022-09-05T16:33:58.859Z,29.80
2022-09-05T16:36:31.166Z,29.80
2022-09-05T16:39:00.649Z,29.80
2022-09-05T16:41:35.741Z,29.80
2022-09-05T16:44:05.751Z,29.80
2022-09-05T16:46:36.757Z,29.80
2022-09-05T16:49:12.091Z,29.80
2022-09-05T16:51:44.241Z,29.70
2022-09-05T16:54:15.537Z,29.70
2022-09-05T16:56:44.841Z,29.70
2022-09-05T16:59:14.097Z,29.70
2022-09-05T17:02:00.560Z,29.70
2022-09-05T17:05:03.349Z,29.70
2022-09-05T17:07:42.268Z,29.70
2022-09-05T17:10:11.878Z,29.60
2022-09-05T17:12:40.116Z,29.60
2022-09-05T17:15:11.235Z,29.60
2022-09-05T17:18:20.411Z,29.60
2022-09-05T17:20:48.418Z,29.60
2022-09-05T17:26:45.460Z,29.50
2022-09-05T17:29:24.244Z,29.50
2022-09-05T17:29:32.523Z,29.60
2022-09-05T17:32:00.559Z,29.50
2022-09-05T17:34:49.878Z,29.50
2022-09-05T17:37:43.985Z,29.50
2022-09-05T17:40:48.210Z,29.50
2022-09-05T17:43:28.922Z,29.40
2022-09-05T17:46:16.349Z,29.40
2022-09-05T17:49:20.027Z,29.40
2022-09-05T17:52:18.404Z,29.40
2022-09-05T17:54:49.648Z,29.30
2022-09-05T17:57:45.294Z,29.30
2022-09-05T18:01:05.573Z,29.30
2022-09-05T18:04:17.193Z,29.30
2022-09-05T18:06:59.332Z,29.30
2022-09-05T18:10:05.946Z,29.20
2022-09-05T18:13:13.091Z,29.20
2022-09-05T18:16:13.326Z,29.20
2022-09-05T18:19:32.787Z,29.20
2022-09-05T18:21:48.544Z,29.10
2022-09-05T18:24:24.379Z,29.10
2022-09-05T18:27:11.418Z,29.10
2022-09-05T18:29:58.083Z,29.10
2022-09-05T18:32:45.278Z,29.10
2022-09-05T18:35:36.383Z,29.10
2022-09-05T18:38:51.850Z,29.10
2022-09-05T18:41:19.468Z,29.00
2022-09-05T18:44:12.265Z,29.00
2022-09-05T18:46:46.145Z,29.00
2022-09-05T18:50:22.015Z,29.00
2022-09-05T18:52:05.244Z,29.00
2022-09-05T18:54:36.156Z,29.00
2022-09-05T18:57:27.030Z,29.00
2022-09-05T18:59:56.708Z,28.90
2022-09-05T19:02:50.296Z,28.90
2022-09-05T19:05:28.414Z,28.90
2022-09-05T19:07:59.503Z,28.90
2022-09-05T19:10:35.744Z,28.90
2022-09-05T19:13:10.607Z,28.90
2022-09-05T19:15:47.951Z,28.90
2022-09-05T19:18:26.881Z,28.90
2022-09-05T19:21:11.773Z,28.80
2022-09-05T19:23:43.713Z,28.80
2022-09-05T19:26:11.879Z,28.80
2022-09-05T19:36:57.822Z,28.80
2022-09-05T19:37:05.766Z,28.80
2022-09-05T19:37:15.604Z,28.70
2022-09-05T19:37:29.279Z,28.70
2022-09-05T19:42:48.044Z,28.70
2022-09-05T19:47:26.061Z,28.70
2022-09-05T19:47:48.432Z,28.70
2022-09-05T19:48:30.617Z,28.70
2022-09-05T19:51:16.434Z,28.70
2022-09-05T19:53:47.573Z,28.70
2022-09-05T19:56:22.248Z,28.60
2022-09-05T19:58:50.559Z,28.60
2022-09-05T20:01:20.839Z,28.60
2022-09-05T20:03:50.804Z,28.60
2022-09-05T20:06:29.443Z,28.60
2022-09-05T20:09:09.478Z,28.60
2022-09-05T20:11:45.756Z,28.60
2022-09-05T20:14:19.142Z,28.60
2022-09-05T20:16:49.572Z,28.60
2022-09-05T20:19:32.804Z,28.60
2022-09-05T20:22:42.553Z,28.60
2022-09-05T20:24:54.204Z,28.50
2022-09-05T20:27:27.679Z,28.50
2022-09-05T20:30:00.476Z,28.50
2022-09-05T20:32:38.664Z,28.50
2022-09-05T20:37:57.227Z,28.50
2022-09-05T20:43:09.668Z,28.50
2022-09-05T20:43:26.921Z,28.50
2022-09-05T20:43:52.490Z,28.50
2022-09-05T20:48:19.447Z,28.50
2022-09-05T20:54:06.802Z,28.50
2022-09-05T20:54:15.418Z,28.40
2022-09-05T20:55:38.789Z,28.40
2022-09-05T20:57:48.577Z,28.40
2022-09-05T21:00:18.051Z,28.40
2022-09-05T21:02:51.348Z,28.30
2022-09-05T21:05:25.578Z,28.40
2022-09-05T21:08:07.235Z,28.40
2022-09-05T21:10:54.784Z,28.30
2022-09-05T21:13:25.958Z,28.30
2022-09-05T21:15:55.561Z,28.30
2022-09-05T21:18:33.086Z,28.30
2022-09-05T21:21:28.903Z,28.30
2022-09-05T21:24:05.258Z,28.20
2022-09-05T21:26:47.402Z,28.20
2022-09-05T21:29:16.476Z,28.10
2022-09-05T21:31:45.856Z,28.10
2022-09-05T21:34:20.342Z,28.10
2022-09-05T21:36:48.617Z,28.10
2022-09-05T21:39:25.184Z,28.00
2022-09-05T21:42:07.768Z,28.00
2022-09-05T21:47:46.043Z,28.00
2022-09-05T21:47:48.488Z,28.00
2022-09-05T21:50:31.232Z,28.00
2022-09-05T21:54:28.173Z,28.00
2022-09-05T21:59:27.859Z,28.10
2022-09-05T21:59:27.971Z,28.00
2022-09-05T22:01:51.268Z,28.00
2022-09-05T22:04:19.387Z,28.00
2022-09-05T22:06:48.382Z,27.90
2022-09-05T22:09:17.540Z,27.90
2022-09-05T22:11:50.709Z,27.90
2022-09-05T22:14:20.705Z,27.90
2022-09-05T22:16:50.611Z,27.90
2022-09-05T22:19:34.003Z,27.90
2022-09-05T22:22:15.595Z,27.90
2022-09-05T22:24:46.886Z,27.80
2022-09-05T22:27:14.827Z,27.80
2022-09-05T22:29:47.329Z,27.80
2022-09-05T22:32:18.123Z,27.80
2022-09-05T22:35:27.810Z,27.80
2022-09-05T22:37:59.371Z,27.80
2022-09-05T22:40:28.113Z,27.80
2022-09-05T22:42:56.763Z,27.80
2022-09-05T22:45:25.923Z,27.80
2022-09-05T22:47:53.644Z,27.80
2022-09-05T22:50:21.420Z,27.70
2022-09-05T22:52:49.099Z,27.70
2022-09-05T22:55:16.998Z,27.70
2022-09-05T22:57:44.951Z,27.70
2022-09-05T23:00:13.575Z,27.70
2022-09-05T23:02:42.646Z,27.70
2022-09-05T23:05:10.889Z,27.70
2022-09-05T23:07:38.746Z,27.70
2022-09-05T23:10:06.911Z,27.70
2022-09-05T23:12:37.434Z,27.70
2022-09-05T23:15:05.734Z,27.70
2022-09-05T23:17:33.489Z,27.60
2022-09-05T23:20:03.519Z,27.60
2022-09-05T23:22:31.212Z,27.60
2022-09-05T23:24:58.896Z,27.60
2022-09-05T23:27:26.725Z,27.60
2022-09-05T23:29:54.449Z,27.60
2022-09-05T23:32:22.164Z,27.60
2022-09-05T23:34:50.153Z,27.60
2022-09-05T23:37:19.192Z,27.60
2022-09-05T23:39:46.919Z,27.70
2022-09-05T23:42:14.685Z,27.70
2022-09-05T23:44:42.372Z,27.60
2022-09-05T23:47:10.111Z,27.60
2022-09-05T23:49:37.802Z,27.60
2022-09-05T23:52:05.506Z,27.60
2022-09-05T23:54:34.517Z,27.60
2022-09-05T23:57:02.232Z,27.60
2022-09-05T23:59:29.926Z,27.60
